createdAt,value
2023-05-12T00:01:01.923Z,60.19
2023-05-12T00:03:31.815Z,60.56
2023-05-12T00:06:03.646Z,60.29
2023-05-12T00:08:31.502Z,60.44
2023-05-12T00:11:01.773Z,60.86
2023-05-12T00:13:31.430Z,60.58
2023-05-12T00:16:00.010Z,60.58
2023-05-12T00:18:28.645Z,60.60
2023-05-12T00:20:57.186Z,60.75
2023-05-12T00:23:26.923Z,59.90
2023-05-12T00:25:56.741Z,60.64
2023-05-12T00:28:26.707Z,59.98
2023-05-12T00:31:00.851Z,59.69
2023-05-12T00:33:31.150Z,60.44
2023-05-12T00:36:04.077Z,60.83
2023-05-12T00:38:34.291Z,60.66
2023-05-12T00:41:04.300Z,61.38
2023-05-12T00:43:33.652Z,61.93
2023-05-12T00:46:05.217Z,62.00
2023-05-12T00:48:36.498Z,61.55
2023-05-12T00:51:06.424Z,61.65
2023-05-12T00:53:48.248Z,61.96
2023-05-12T00:56:19.957Z,62.20
2023-05-12T00:58:48.074Z,62.67
2023-05-12T01:01:16.754Z,62.77
2023-05-12T01:03:46.321Z,62.55
2023-05-12T01:06:40.065Z,62.76
2023-05-12T01:09:10.551Z,63.33
2023-05-12T01:11:40.314Z,63.60
2023-05-12T01:14:10.217Z,63.73
2023-05-12T01:16:48.264Z,63.46
2023-05-12T01:19:47.453Z,63.64
2023-05-12T01:22:18.287Z,63.24
2023-05-12T01:25:02.562Z,63.23
2023-05-12T01:27:34.255Z,63.32
2023-05-12T01:30:05.999Z,63.17
2023-05-12T01:32:36.631Z,62.26
2023-05-12T01:35:03.869Z,62.47
2023-05-12T01:37:32.000Z,62.26
2023-05-12T01:40:00.479Z,62.83
2023-05-12T01:42:28.930Z,62.59
2023-05-12T01:44:57.236Z,62.07
2023-05-12T01:47:25.629Z,62.34
2023-05-12T01:49:54.422Z,63.04
2023-05-12T01:52:22.524Z,62.01
2023-05-12T01:54:51.531Z,61.95
2023-05-12T01:57:19.641Z,61.55
2023-05-12T01:59:47.717Z,61.38
2023-05-12T02:02:16.290Z,61.97
2023-05-12T02:04:44.647Z,62.28
2023-05-12T02:07:12.967Z,62.18
2023-05-12T02:09:41.346Z,62.03
2023-05-12T02:12:13.726Z,62.00
2023-05-12T02:14:43.421Z,62.27
2023-05-12T02:17:13.360Z,61.78
2023-05-12T02:19:43.281Z,62.84
2023-05-12T02:22:13.039Z,62.76
2023-05-12T02:24:42.787Z,63.80
2023-05-12T02:27:12.584Z,63.23
2023-05-12T02:29:42.365Z,63.45
2023-05-12T02:32:12.591Z,63.75
2023-05-12T02:34:42.561Z,63.89
2023-05-12T02:37:12.338Z,63.91
2023-05-12T02:39:42.164Z,64.06
2023-05-12T02:42:18.753Z,64.23
2023-05-12T02:44:48.458Z,64.39
2023-05-12T02:47:18.243Z,64.69
2023-05-12T02:49:48.006Z,65.27
2023-05-12T02:52:17.890Z,65.86
2023-05-12T02:54:47.940Z,65.80
2023-05-12T02:57:17.708Z,65.81
2023-05-12T02:59:47.484Z,66.78
2023-05-12T03:02:17.583Z,66.23
2023-05-12T03:04:47.359Z,66.41
2023-05-12T03:07:17.526Z,66.91
2023-05-12T03:09:48.227Z,66.95
2023-05-12T03:12:18.530Z,67.11
2023-05-12T03:14:46.628Z,67.58
2023-05-12T03:17:15.366Z,67.63
2023-05-12T03:19:43.758Z,68.11
2023-05-12T03:22:12.204Z,68.36
2023-05-12T03:24:40.714Z,68.71
2023-05-12T03:27:09.356Z,68.99
2023-05-12T03:29:37.702Z,69.09
2023-05-12T03:32:06.713Z,69.08
2023-05-12T03:34:34.665Z,69.79
2023-05-12T03:37:03.058Z,69.76
2023-05-12T03:39:31.317Z,70.05
2023-05-12T03:41:59.833Z,70.30
2023-05-12T03:44:28.356Z,70.24
2023-05-12T03:46:56.840Z,70.81
2023-05-12T03:49:25.094Z,71.03
2023-05-12T03:51:53.519Z,70.67
2023-05-12T03:54:21.972Z,70.72
2023-05-12T03:56:53.827Z,71.01
2023-05-12T03:59:21.876Z,71.31
2023-05-12T04:01:50.631Z,71.58
2023-05-12T04:04:19.400Z,71.36
2023-05-12T04:06:47.197Z,71.52
2023-05-12T04:09:18.285Z,71.36
2023-05-12T04:11:48.059Z,71.56
2023-05-12T04:14:18.243Z,71.59
2023-05-12T04:16:48.529Z,71.56
2023-05-12T04:19:18.389Z,71.16
2023-05-12T04:21:48.093Z,71.42
2023-05-12T04:24:18.105Z,71.63
2023-05-12T04:26:47.871Z,71.82
2023-05-12T04:29:17.989Z,71.97
2023-05-12T04:31:47.832Z,71.83
2023-05-12T04:34:17.780Z,71.99
2023-05-12T04:36:47.501Z,71.99
2023-05-12T04:39:17.766Z,71.76
2023-05-12T04:41:47.937Z,71.66
2023-05-12T04:44:18.073Z,71.60
2023-05-12T04:46:47.926Z,71.89
2023-05-12T04:49:17.902Z,71.92
2023-05-12T04:51:48.205Z,71.51
2023-05-12T04:54:18.224Z,71.37
2023-05-12T04:56:48.079Z,71.32
2023-05-12T04:59:18.288Z,71.59
2023-05-12T05:01:48.162Z,71.51
2023-05-12T05:04:18.136Z,69.46
2023-05-12T05:06:48.013Z,69.96
2023-05-12T05:09:18.054Z,69.59
2023-05-12T05:11:48.040Z,69.97
2023-05-12T05:14:18.116Z,68.00
2023-05-12T05:16:48.832Z,67.53
2023-05-12T05:19:22.581Z,67.48
2023-05-12T05:21:59.955Z,67.74
2023-05-12T05:24:29.844Z,66.72
2023-05-12T05:26:59.844Z,65.79
2023-05-12T05:29:29.631Z,65.15
2023-05-12T05:31:59.512Z,65.71
2023-05-12T05:34:29.435Z,64.60
2023-05-12T05:36:59.240Z,64.19
2023-05-12T05:39:30.924Z,63.32
2023-05-12T05:42:00.969Z,62.67
2023-05-12T05:44:30.679Z,62.19
2023-05-12T05:47:01.357Z,61.73
2023-05-12T05:49:31.276Z,61.84
2023-05-12T05:52:01.178Z,60.50
2023-05-12T05:54:31.149Z,59.76
2023-05-12T05:57:02.222Z,58.66
2023-05-12T05:59:29.398Z,58.54
2023-05-12T06:01:58.029Z,59.42
2023-05-12T06:04:26.284Z,58.34
2023-05-12T06:06:54.623Z,56.86
2023-05-12T06:09:23.027Z,57.13
2023-05-12T06:11:51.472Z,56.78
2023-05-12T06:14:19.912Z,56.22
2023-05-12T06:16:48.313Z,56.24
2023-05-12T06:19:16.762Z,55.74
2023-05-12T06:21:45.036Z,55.14
2023-05-12T06:24:13.557Z,54.13
2023-05-12T06:26:41.915Z,53.71
2023-05-12T06:29:10.479Z,53.65
2023-05-12T06:31:38.818Z,54.45
2023-05-12T06:34:07.142Z,52.73
2023-05-12T06:36:35.699Z,52.55
2023-05-12T06:39:04.616Z,52.72
2023-05-12T06:41:33.636Z,52.61
2023-05-12T06:44:02.334Z,51.67
2023-05-12T06:46:29.289Z,51.38
2023-05-12T06:48:57.877Z,52.44
2023-05-12T06:51:26.391Z,49.87
2023-05-12T06:53:55.269Z,50.44
2023-05-12T06:56:23.838Z,49.89
2023-05-12T06:58:52.267Z,48.65
2023-05-12T07:01:19.798Z,49.86
2023-05-12T07:03:48.198Z,47.67
2023-05-12T07:06:16.564Z,47.99
2023-05-12T07:08:45.012Z,48.88
2023-05-12T07:11:13.636Z,48.70
2023-05-12T07:13:41.803Z,49.67
2023-05-12T07:16:10.379Z,47.14
2023-05-12T07:18:38.810Z,47.39
2023-05-12T07:21:07.806Z,46.72
2023-05-12T07:23:37.714Z,47.53
2023-05-12T07:26:07.993Z,46.98
2023-05-12T07:28:36.647Z,45.54
2023-05-12T07:31:08.440Z,46.08
2023-05-12T07:33:38.307Z,44.86
2023-05-12T07:36:09.040Z,44.80
2023-05-12T07:38:38.892Z,46.67
2023-05-12T07:41:08.785Z,44.01
2023-05-12T07:43:38.670Z,43.97
2023-05-12T07:46:08.489Z,45.53
2023-05-12T07:48:40.274Z,44.48
2023-05-12T07:51:10.370Z,43.76
2023-05-12T07:53:40.162Z,43.54
2023-05-12T07:56:10.071Z,42.18
2023-05-12T07:58:39.903Z,42.82
2023-05-12T08:01:10.295Z,41.67
2023-05-12T08:03:40.296Z,40.55
2023-05-12T08:06:10.609Z,41.42
2023-05-12T08:08:40.459Z,40.39
2023-05-12T08:11:11.262Z,39.58
2023-05-12T08:13:41.108Z,40.37
2023-05-12T08:16:10.866Z,40.88
2023-05-12T08:18:40.736Z,39.56
2023-05-12T08:21:10.841Z,40.05
2023-05-12T08:23:40.848Z,39.89
2023-05-12T08:26:10.720Z,39.08
2023-05-12T08:28:40.451Z,37.53
2023-05-12T08:31:10.474Z,37.92
2023-05-12T08:33:40.294Z,36.11
2023-05-12T08:36:11.181Z,34.89
2023-05-12T08:38:41.313Z,35.11
2023-05-12T08:41:29.935Z,35.86
2023-05-12T08:44:01.164Z,35.26
2023-05-12T08:46:35.600Z,36.33
2023-05-12T08:49:06.402Z,35.36
2023-05-12T08:51:36.934Z,34.54
2023-05-12T08:54:10.665Z,34.63
2023-05-12T08:59:14.145Z,33.85
2023-05-12T09:01:44.965Z,33.39
2023-05-12T09:04:11.967Z,32.25
2023-05-12T09:06:43.787Z,32.80
2023-05-12T09:09:15.669Z,33.62
2023-05-12T09:11:46.672Z,32.40
2023-05-12T09:14:25.887Z,31.95
2023-05-12T09:17:04.785Z,31.98
2023-05-12T09:19:35.201Z,30.46
2023-05-12T09:22:05.315Z,28.91
2023-05-12T09:24:40.642Z,29.21
2023-05-12T09:27:10.573Z,29.92
2023-05-12T09:29:59.129Z,29.28
2023-05-12T09:32:35.317Z,30.88
2023-05-12T09:35:08.750Z,31.63
2023-05-12T09:37:40.470Z,31.11
2023-05-12T09:40:11.625Z,30.72
2023-05-12T09:42:44.869Z,31.69
2023-05-12T09:45:14.795Z,33.62
2023-05-12T09:47:45.359Z,31.04
2023-05-12T09:50:15.207Z,31.92
2023-05-12T09:52:45.107Z,32.12
2023-05-12T09:55:14.944Z,31.19
2023-05-12T09:57:46.747Z,31.23
2023-05-12T10:00:33.142Z,31.26
2023-05-12T10:03:14.627Z,31.83
2023-05-12T10:05:58.480Z,31.45
2023-05-12T10:08:37.441Z,31.21
2023-05-12T10:11:08.445Z,32.04
2023-05-12T10:13:39.908Z,32.77
2023-05-12T10:16:10.485Z,32.27
2023-05-12T10:18:40.093Z,34.16
2023-05-12T10:21:11.978Z,33.81
2023-05-12T10:23:44.227Z,33.41
2023-05-12T10:26:14.680Z,33.67
2023-05-12T10:28:45.655Z,33.50
2023-05-12T10:31:16.414Z,33.88
2023-05-12T10:34:03.541Z,34.76
2023-05-12T10:36:31.949Z,34.23
2023-05-12T10:39:06.356Z,33.94
2023-05-12T10:41:36.345Z,34.32
2023-05-12T10:44:06.628Z,34.48
2023-05-12T10:46:37.349Z,35.42
2023-05-12T10:49:10.684Z,34.19
2023-05-12T10:51:43.256Z,33.14
2023-05-12T10:54:25.174Z,34.62
2023-05-12T10:57:00.353Z,34.52
2023-05-12T10:59:30.888Z,33.99
2023-05-12T11:02:05.561Z,33.48
2023-05-12T11:04:53.635Z,35.22
2023-05-12T11:07:27.334Z,34.37
2023-05-12T11:10:01.758Z,33.71
2023-05-12T11:12:35.205Z,33.33
2023-05-12T11:15:07.117Z,32.17
2023-05-12T11:17:41.023Z,33.76
2023-05-12T11:20:25.469Z,32.57
2023-05-12T11:22:54.894Z,33.15
2023-05-12T11:25:28.181Z,32.30
2023-05-12T11:27:56.566Z,32.57
2023-05-12T11:30:24.586Z,32.38
2023-05-12T11:33:03.877Z,32.68
2023-05-12T11:35:33.921Z,31.51
2023-05-12T11:38:16.733Z,31.35
2023-05-12T11:40:44.042Z,30.61
2023-05-12T11:43:15.106Z,30.51
2023-05-12T11:45:45.791Z,31.74
2023-05-12T11:48:16.639Z,31.27
2023-05-12T11:50:49.509Z,31.30
2023-05-12T11:53:19.610Z,31.10
2023-05-12T11:55:56.934Z,30.80
2023-05-12T11:58:30.477Z,30.87
2023-05-12T12:01:11.809Z,31.86
2023-05-12T12:03:53.476Z,30.36
2023-05-12T12:06:23.389Z,31.27
2023-05-12T12:08:59.977Z,30.52
2023-05-12T12:11:30.765Z,31.12
2023-05-12T12:14:00.895Z,30.17
2023-05-12T12:16:32.921Z,31.45
2023-05-12T12:19:02.037Z,31.60
2023-05-12T12:21:32.014Z,31.57
2023-05-12T12:23:59.050Z,30.67
2023-05-12T12:26:27.417Z,30.68
2023-05-12T12:28:55.852Z,30.84
2023-05-12T12:31:24.239Z,30.12
2023-05-12T12:33:52.745Z,31.30
2023-05-12T12:36:21.806Z,31.19
2023-05-12T12:38:49.970Z,31.65
2023-05-12T12:41:17.979Z,31.51
2023-05-12T12:43:46.477Z,32.03
2023-05-12T12:46:15.022Z,30.66
2023-05-12T12:48:43.805Z,30.30
2023-05-12T12:51:12.213Z,30.36
2023-05-12T12:53:43.222Z,30.67
2023-05-12T12:56:12.451Z,31.54
2023-05-12T12:58:40.736Z,31.57
2023-05-12T13:01:09.688Z,31.03
2023-05-12T13:03:37.421Z,31.23
2023-05-12T13:06:06.053Z,31.35
2023-05-12T13:08:35.066Z,32.61
2023-05-12T13:11:03.346Z,30.47
2023-05-12T13:13:31.777Z,31.46
2023-05-12T13:16:00.940Z,31.38
2023-05-12T13:18:29.168Z,31.02
2023-05-12T13:20:57.566Z,31.04
2023-05-12T13:23:25.989Z,31.87
2023-05-12T13:25:54.485Z,32.30
2023-05-12T13:28:22.987Z,31.75
2023-05-12T13:30:54.703Z,31.48
2023-05-12T13:33:22.865Z,32.98
2023-05-12T13:35:51.203Z,29.91
2023-05-12T13:38:20.045Z,30.09
2023-05-12T13:40:48.124Z,31.42
2023-05-12T13:43:16.678Z,30.98
2023-05-12T13:45:45.181Z,31.57
2023-05-12T13:48:13.769Z,31.36
2023-05-12T13:50:42.271Z,30.56
2023-05-12T13:53:10.409Z,32.19
2023-05-12T13:55:40.789Z,31.43
2023-05-12T13:58:08.147Z,31.11
2023-05-12T14:00:38.206Z,30.19
2023-05-12T14:03:08.329Z,30.26
2023-05-12T14:05:38.285Z,32.84
2023-05-12T14:08:08.136Z,31.00
2023-05-12T14:10:38.075Z,29.89
2023-05-12T14:13:08.598Z,30.64
2023-05-12T14:15:48.643Z,30.92
2023-05-12T14:18:20.582Z,31.07
2023-05-12T14:20:51.427Z,30.33
2023-05-12T14:23:21.157Z,31.08
2023-05-12T14:25:51.320Z,31.59
2023-05-12T14:28:23.053Z,30.71
2023-05-12T14:30:53.644Z,30.48
2023-05-12T14:33:23.507Z,30.39
2023-05-12T14:36:05.720Z,30.05
2023-05-12T14:38:36.925Z,29.84
2023-05-12T14:41:08.392Z,30.42
2023-05-12T14:43:38.373Z,30.82
2023-05-12T14:46:08.685Z,31.46
2023-05-12T14:48:38.329Z,31.07
2023-05-12T14:51:06.922Z,29.89
2023-05-12T14:53:34.883Z,30.10
2023-05-12T14:56:03.306Z,29.76
2023-05-12T14:58:32.929Z,31.10
2023-05-12T15:01:02.109Z,30.44
2023-05-12T15:03:33.677Z,29.87
2023-05-12T15:06:06.762Z,29.76
2023-05-12T15:08:37.669Z,31.35
2023-05-12T15:11:07.551Z,29.61
2023-05-12T15:13:37.349Z,30.56
2023-05-12T15:16:08.223Z,29.48
2023-05-12T15:18:38.205Z,30.54
2023-05-12T15:21:08.048Z,29.99
2023-05-12T15:23:37.798Z,30.17
2023-05-12T15:26:26.993Z,29.46
2023-05-12T15:28:57.530Z,30.41
2023-05-12T15:31:29.983Z,30.87
2023-05-12T15:34:00.592Z,30.20
2023-05-12T15:36:30.872Z,30.83
2023-05-12T15:39:00.721Z,30.40
2023-05-12T15:41:30.828Z,30.14
2023-05-12T15:44:00.672Z,30.41
2023-05-12T15:46:31.724Z,30.43
2023-05-12T15:49:02.130Z,30.48
2023-05-12T15:51:32.676Z,30.03
2023-05-12T15:54:04.162Z,30.28
2023-05-12T15:56:34.089Z,30.42
2023-05-12T15:59:05.184Z,30.69
2023-05-12T16:01:35.589Z,30.35
2023-05-12T16:04:05.474Z,30.12
2023-05-12T16:06:35.290Z,31.13
2023-05-12T16:09:05.205Z,31.03
2023-05-12T16:15:55.000Z,31.34
2023-05-12T16:18:24.920Z,30.69
2023-05-12T16:20:54.721Z,30.88
2023-05-12T16:23:25.900Z,31.10
2023-05-12T16:25:55.637Z,31.68
2023-05-12T16:28:25.460Z,31.07
2023-05-12T16:30:55.504Z,30.53
2023-05-12T16:33:25.308Z,31.33
2023-05-12T16:35:54.985Z,32.36
2023-05-12T16:38:24.839Z,33.67
2023-05-12T16:40:54.559Z,33.06
2023-05-12T16:43:24.320Z,32.94
2023-05-12T16:46:01.168Z,32.96
2023-05-12T16:48:34.400Z,33.49
2023-05-12T16:51:07.326Z,33.33
2023-05-12T16:53:37.207Z,33.34
2023-05-12T16:56:07.161Z,33.53
2023-05-12T16:58:35.600Z,33.44
2023-05-12T17:01:03.717Z,33.96
2023-05-12T17:03:32.129Z,34.46
2023-05-12T17:06:00.804Z,34.24
2023-05-12T17:08:28.964Z,33.95
2023-05-12T17:10:57.380Z,33.86
2023-05-12T17:13:25.831Z,33.37
2023-05-12T17:15:54.573Z,33.94
2023-05-12T17:18:24.817Z,33.96
2023-05-12T17:20:54.411Z,34.61
2023-05-12T17:23:22.861Z,34.00
2023-05-12T17:25:51.441Z,34.97
2023-05-12T17:28:21.063Z,34.17
2023-05-12T17:30:50.041Z,34.83
2023-05-12T17:33:17.674Z,35.07
2023-05-12T17:35:51.498Z,35.13
2023-05-12T17:38:33.483Z,35.57
2023-05-12T17:41:03.250Z,35.37
2023-05-12T17:43:33.006Z,35.89
2023-05-12T17:46:04.758Z,36.05
2023-05-12T17:48:35.250Z,36.63
2023-05-12T17:51:06.361Z,36.86
2023-05-12T17:53:36.203Z,36.63
2023-05-12T17:56:06.425Z,36.60
2023-05-12T17:58:36.245Z,36.26
2023-05-12T18:01:06.116Z,37.42
2023-05-12T18:03:36.661Z,37.03
2023-05-12T18:06:08.774Z,36.89
2023-05-12T18:08:38.236Z,37.04
2023-05-12T18:11:06.383Z,36.85
2023-05-12T18:13:34.991Z,36.85
2023-05-12T18:16:03.430Z,36.69
2023-05-12T18:18:32.459Z,37.58
2023-05-12T18:21:01.171Z,37.46
2023-05-12T18:23:28.725Z,37.14
2023-05-12T18:25:57.241Z,37.25
2023-05-12T18:28:25.623Z,37.25
2023-05-12T18:30:58.018Z,38.43
2023-05-12T18:33:30.250Z,37.65
2023-05-12T18:36:01.000Z,37.98
2023-05-12T18:38:30.915Z,37.74
2023-05-12T18:41:00.806Z,37.98
2023-05-12T18:43:30.865Z,38.18
2023-05-12T18:46:01.448Z,38.25
2023-05-12T18:48:31.447Z,39.02
2023-05-12T18:51:01.639Z,39.41
2023-05-12T18:53:31.832Z,39.57
2023-05-12T18:56:02.329Z,39.44
2023-05-12T18:58:32.534Z,39.21
2023-05-12T19:01:02.023Z,39.79
2023-05-12T19:03:29.245Z,39.90
2023-05-12T19:05:57.672Z,40.98
2023-05-12T19:08:26.056Z,41.21
2023-05-12T19:10:54.323Z,40.63
2023-05-12T19:13:22.643Z,40.64
2023-05-12T19:15:51.149Z,41.76
2023-05-12T19:18:19.958Z,42.13
2023-05-12T19:20:48.269Z,41.90
2023-05-12T19:23:16.549Z,41.78
2023-05-12T19:25:45.057Z,42.16
2023-05-12T19:28:13.255Z,41.86
2023-05-12T19:30:41.681Z,42.24
2023-05-12T19:33:10.359Z,41.95
2023-05-12T19:35:39.231Z,42.77
2023-05-12T19:38:07.168Z,42.59
2023-05-12T19:40:35.624Z,42.69
2023-05-12T19:43:05.258Z,42.78
2023-05-12T19:45:32.229Z,42.52
2023-05-12T19:48:00.881Z,43.30
2023-05-12T19:50:29.470Z,43.54
2023-05-12T19:52:57.823Z,43.49
2023-05-12T19:55:26.143Z,43.36
2023-05-12T19:57:54.436Z,43.89
2023-05-12T20:00:22.795Z,43.41
2023-05-12T20:02:51.542Z,43.93
2023-05-12T20:05:20.309Z,44.68
2023-05-12T20:07:48.702Z,45.40
2023-05-12T20:10:16.693Z,45.38
2023-05-12T20:12:45.120Z,45.31
2023-05-12T20:15:13.625Z,44.96
2023-05-12T20:17:41.801Z,45.57
2023-05-12T20:20:11.501Z,45.53
2023-05-12T20:22:39.241Z,45.70
2023-05-12T20:25:06.897Z,46.32
2023-05-12T20:27:34.752Z,46.42
2023-05-12T20:30:03.410Z,46.14
2023-05-12T20:32:31.783Z,46.46
2023-05-12T20:35:00.189Z,46.73
2023-05-12T20:37:28.439Z,46.85
2023-05-12T20:39:57.389Z,46.99
2023-05-12T20:42:25.493Z,47.66
2023-05-12T20:44:53.884Z,47.18
2023-05-12T20:47:22.479Z,48.06
2023-05-12T20:49:57.254Z,48.72
2023-05-12T20:52:28.981Z,48.70
2023-05-12T20:54:59.479Z,49.30
2023-05-12T20:57:29.586Z,49.03
2023-05-12T20:59:59.458Z,50.04
2023-05-12T21:02:29.690Z,50.12
2023-05-12T21:04:59.537Z,50.30
2023-05-12T21:07:33.222Z,50.15
2023-05-12T21:10:03.871Z,50.27
2023-05-12T21:12:34.252Z,51.17
2023-05-12T21:15:05.004Z,51.20
2023-05-12T21:17:34.955Z,51.34
2023-05-12T21:20:10.801Z,51.66
2023-05-12T21:22:40.966Z,52.40
2023-05-12T21:25:10.899Z,51.85
2023-05-12T21:27:40.924Z,52.12
2023-05-12T21:30:11.371Z,52.53
2023-05-12T21:32:41.238Z,53.40
2023-05-12T21:35:11.784Z,53.06
2023-05-12T21:37:41.684Z,53.33
2023-05-12T21:40:12.711Z,53.19
2023-05-12T21:42:43.391Z,53.30
2023-05-12T21:45:13.379Z,53.35
2023-05-12T21:47:43.166Z,53.02
2023-05-12T21:50:13.275Z,53.25
2023-05-12T21:52:43.552Z,53.48
2023-05-12T21:55:14.897Z,53.66
2023-05-12T21:57:45.538Z,53.99
2023-05-12T22:00:19.941Z,54.20
2023-05-12T22:02:50.539Z,54.33
2023-05-12T22:05:18.681Z,54.46
2023-05-12T22:07:47.017Z,54.81
2023-05-12T22:10:15.599Z,54.17
2023-05-12T22:12:43.746Z,54.07
2023-05-12T22:15:12.156Z,54.08
2023-05-12T22:17:40.674Z,55.24
2023-05-12T22:20:10.140Z,55.35
2023-05-12T22:22:38.322Z,55.37
2023-05-12T22:25:07.569Z,55.36
2023-05-12T22:27:34.992Z,55.14
2023-05-12T22:30:04.381Z,54.21
2023-05-12T22:32:34.187Z,54.30
2023-05-12T22:35:03.103Z,55.10
2023-05-12T22:37:30.992Z,55.52
2023-05-12T22:39:59.422Z,55.11
2023-05-12T22:42:27.717Z,55.24
2023-05-12T22:44:57.765Z,55.53
2023-05-12T22:47:24.690Z,55.66
2023-05-12T22:49:53.038Z,55.52
2023-05-12T22:52:21.433Z,55.83
2023-05-12T22:54:54.720Z,56.41
2023-05-12T22:57:24.640Z,57.22
2023-05-12T22:59:54.546Z,57.19
2023-05-12T23:02:24.500Z,57.12
2023-05-12T23:04:54.467Z,56.76
2023-05-12T23:07:24.794Z,56.73
2023-05-12T23:09:54.667Z,57.32
2023-05-12T23:12:24.614Z,57.46
2023-05-12T23:14:54.522Z,57.46
2023-05-12T23:17:24.465Z,57.63
2023-05-12T23:19:54.551Z,58.09
2023-05-12T23:22:24.894Z,58.18
2023-05-12T23:24:55.144Z,58.64
2023-05-12T23:27:26.200Z,58.54
2023-05-12T23:29:56.074Z,58.40
2023-05-12T23:32:26.195Z,58.41
2023-05-12T23:34:56.618Z,59.00
2023-05-12T23:37:26.719Z,58.93
2023-05-12T23:39:56.483Z,59.16
2023-05-12T23:42:26.456Z,58.47
2023-05-12T23:44:56.218Z,58.98
2023-05-12T23:47:26.079Z,59.17
2023-05-12T23:49:55.892Z,59.77
2023-05-12T23:52:25.881Z,60.09
2023-05-12T23:54:54.300Z,60.15
2023-05-12T23:57:22.552Z,60.34
2023-05-12T23:59:51.419Z,60.34
